createdAt,value
2018-12-27T00:01:33.683Z,101493.63
2018-12-27T00:06:37.440Z,101484.17
2018-12-27T00:11:41.158Z,101473.73
2018-12-27T00:16:44.894Z,101468.47
2018-12-27T00:21:48.667Z,101466.44
2018-12-27T00:26:52.436Z,101461.88
2018-12-27T00:31:56.475Z,101467.49
2018-12-27T00:37:00.467Z,101463.50
2018-12-27T00:42:04.528Z,101464.37
2018-12-27T00:47:08.551Z,101466.19
2018-12-27T00:52:12.585Z,101475.17
2018-12-27T00:57:16.651Z,101473.50
2018-12-27T01:02:20.634Z,101469.42
2018-12-27T01:07:24.655Z,101467.14
2018-12-27T01:12:28.752Z,101464.52
2018-12-27T01:17:32.855Z,101463.05
2018-12-27T01:22:36.901Z,101461.30
2018-12-27T01:27:40.932Z,101463.20
2018-12-27T01:32:44.932Z,101462.97
2018-12-27T01:37:48.926Z,101456.75
2018-12-27T01:42:53.424Z,101456.03
2018-12-27T01:47:57.453Z,101449.66
2018-12-27T01:53:01.573Z,101441.97
2018-12-27T01:58:05.583Z,101437.06
2018-12-27T02:03:09.638Z,101437.75
2018-12-27T02:08:13.637Z,101447.22
2018-12-27T02:13:17.613Z,101436.15
2018-12-27T02:18:21.688Z,101434.22
2018-12-27T02:23:25.687Z,101451.34
2018-12-27T02:28:29.713Z,101438.66
2018-12-27T02:33:35.584Z,101434.19
2018-12-27T02:38:39.486Z,101422.13
2018-12-27T02:43:43.477Z,101425.22
2018-12-27T02:48:47.478Z,101408.89
2018-12-27T02:53:51.482Z,101398.44
2018-12-27T02:58:55.522Z,101386.09
2018-12-27T03:03:59.502Z,101374.13
2018-12-27T03:09:04.610Z,101365.36
2018-12-27T03:14:08.903Z,101354.09
2018-12-27T03:19:12.888Z,101346.83
2018-12-27T03:24:16.990Z,101351.96
2018-12-27T03:29:21.003Z,101344.65
2018-12-27T03:34:25.014Z,101338.03
2018-12-27T03:39:29.001Z,101344.87
2018-12-27T03:44:33.001Z,101338.42
2018-12-27T03:49:36.986Z,101329.47
2018-12-27T03:54:40.962Z,101321.25
2018-12-27T03:59:45.290Z,101323.41
2018-12-27T04:04:49.311Z,101318.06
2018-12-27T04:09:53.358Z,101309.73
2018-12-27T04:15:06.498Z,101314.56
2018-12-27T04:20:10.361Z,101304.12
2018-12-27T04:25:14.248Z,101293.22
2018-12-27T04:30:18.093Z,101291.58
2018-12-27T04:35:22.016Z,101286.86
2018-12-27T04:40:25.786Z,101286.95
2018-12-27T04:45:29.615Z,101293.69
2018-12-27T04:50:33.389Z,101287.75
2018-12-27T04:55:37.119Z,101280.80
2018-12-27T05:00:40.842Z,101294.16
2018-12-27T05:05:44.552Z,101290.34
2018-12-27T05:10:48.295Z,101301.42
2018-12-27T05:15:52.155Z,101293.27
2018-12-27T05:20:55.915Z,101298.16
2018-12-27T05:25:59.691Z,101304.94
2018-12-27T05:31:03.505Z,101308.41
2018-12-27T05:36:07.247Z,101310.20
2018-12-27T05:41:11.020Z,101304.34
2018-12-27T05:46:14.838Z,101303.45
2018-12-27T05:51:18.593Z,101302.46
2018-12-27T05:56:22.389Z,101292.88
2018-12-27T06:01:26.120Z,101289.69
2018-12-27T06:06:29.941Z,101283.34
2018-12-27T06:11:33.705Z,101288.41
2018-12-27T06:16:37.447Z,101289.67
2018-12-27T06:21:41.161Z,101289.19
2018-12-27T06:26:44.888Z,101286.16
2018-12-27T06:31:48.645Z,101288.70
2018-12-27T06:36:52.373Z,101285.05
2018-12-27T06:41:56.121Z,101290.91
2018-12-27T06:46:59.867Z,101291.95
2018-12-27T06:52:03.604Z,101296.23
2018-12-27T06:57:07.358Z,101293.94
2018-12-27T07:02:11.101Z,101281.03
2018-12-27T07:07:14.907Z,101279.16
2018-12-27T07:12:18.637Z,101273.69
2018-12-27T07:17:22.355Z,101268.66
2018-12-27T07:22:26.092Z,101263.92
2018-12-27T07:27:29.815Z,101261.86
2018-12-27T07:32:33.537Z,101270.26
2018-12-27T07:37:37.278Z,101267.13
2018-12-27T07:42:41.049Z,101274.42
2018-12-27T07:47:44.794Z,101276.88
2018-12-27T07:52:48.535Z,101287.12
2018-12-27T07:57:52.251Z,101282.75
2018-12-27T08:02:55.955Z,101284.62
2018-12-27T08:07:59.707Z,101295.30
2018-12-27T08:13:03.418Z,101294.54
2018-12-27T08:18:07.145Z,101300.75
2018-12-27T08:23:10.869Z,101309.25
2018-12-27T08:28:14.590Z,101308.06
2018-12-27T08:33:18.459Z,101291.04
2018-12-27T08:38:22.217Z,101292.36
2018-12-27T08:43:25.944Z,101295.41
2018-12-27T08:48:29.662Z,101309.50
2018-12-27T08:53:33.375Z,101309.50
2018-12-27T08:58:37.116Z,101308.18
2018-12-27T09:03:40.851Z,101312.19
2018-12-27T09:08:44.592Z,101307.67
2018-12-27T09:13:48.305Z,101311.56
2018-12-27T09:18:52.014Z,101312.45
2018-12-27T09:23:55.720Z,101319.09
2018-12-27T09:28:59.446Z,101310.84
2018-12-27T09:34:03.180Z,101319.58
2018-12-27T09:39:07.482Z,101317.59
2018-12-27T09:44:11.190Z,101317.31
2018-12-27T09:49:14.927Z,101318.28
2018-12-27T09:54:18.650Z,101312.99
2018-12-27T09:59:22.398Z,101318.19
2018-12-27T10:04:26.192Z,101322.43
2018-12-27T10:09:29.913Z,101320.77
2018-12-27T10:14:33.652Z,101312.34
2018-12-27T10:19:37.363Z,101313.62
2018-12-27T10:24:41.085Z,101307.72
2018-12-27T10:29:44.801Z,101299.88
2018-12-27T10:34:48.546Z,101285.66
2018-12-27T10:39:52.272Z,101265.23
2018-12-27T10:44:56.178Z,101269.78
2018-12-27T10:49:59.897Z,101265.43
2018-12-27T10:55:03.991Z,101262.44
2018-12-27T11:00:10.068Z,101253.89
2018-12-27T11:05:13.773Z,101243.22
2018-12-27T11:10:17.489Z,101221.98
2018-12-27T11:15:21.202Z,101218.52
2018-12-27T11:20:25.028Z,101204.61
2018-12-27T11:25:28.751Z,101203.14
2018-12-27T11:30:32.695Z,101194.95
2018-12-27T11:35:36.423Z,101183.66
2018-12-27T11:40:40.132Z,101189.59
2018-12-27T11:45:43.899Z,101173.88
2018-12-27T11:50:47.684Z,101169.31
2018-12-27T11:55:51.419Z,101171.38
2018-12-27T12:00:55.194Z,101159.70
2018-12-27T12:06:03.215Z,101165.02
2018-12-27T12:11:04.399Z,101163.95
2018-12-27T12:16:08.274Z,101161.67
2018-12-27T12:43:56.519Z,101147.50
2018-12-27T12:49:00.290Z,101148.88
2018-12-27T12:54:04.042Z,101132.77
2018-12-27T13:04:32.181Z,101123.64
2018-12-27T13:09:35.954Z,101127.09
2018-12-27T13:14:39.715Z,101126.00
2018-12-27T13:19:43.473Z,101127.28
2018-12-27T13:24:47.288Z,101127.39
2018-12-27T13:29:51.051Z,101135.17
2018-12-27T13:34:54.794Z,101135.81
2018-12-27T13:39:58.565Z,101140.59
2018-12-27T13:45:02.326Z,101132.74
2018-12-27T13:50:06.414Z,101123.41
2018-12-27T13:55:10.312Z,101127.88
2018-12-27T14:00:14.479Z,101124.98
2018-12-27T14:05:22.101Z,101125.59
2018-12-27T14:10:25.845Z,101120.91
2018-12-27T14:15:29.589Z,101122.83
2018-12-27T14:20:33.333Z,101126.64
2018-12-27T14:25:37.104Z,101130.69
2018-12-27T14:30:40.872Z,101132.98
2018-12-27T14:35:44.662Z,101138.19
2018-12-27T14:40:48.400Z,101145.41
2018-12-27T14:45:52.174Z,101147.95
2018-12-27T14:50:55.915Z,101145.44
2018-12-27T14:55:59.654Z,101148.42
2018-12-27T15:01:03.411Z,101148.86
2018-12-27T15:06:07.187Z,101147.36
2018-12-27T15:11:10.964Z,101154.24
2018-12-27T15:16:14.698Z,101159.77
2018-12-27T15:21:18.459Z,101155.02
2018-12-27T15:26:22.204Z,101149.63
2018-12-27T15:31:25.964Z,101139.07
2018-12-27T15:36:29.710Z,101133.62
2018-12-27T15:41:33.471Z,101125.88
2018-12-27T15:46:37.221Z,101126.59
2018-12-27T15:51:41.099Z,101127.19
2018-12-27T15:56:44.844Z,101129.78
2018-12-27T16:01:48.697Z,101122.33
2018-12-27T16:06:52.512Z,101126.41
2018-12-27T16:11:56.254Z,101127.14
2018-12-27T16:17:00.035Z,101134.87
2018-12-27T16:22:03.863Z,101142.67
2018-12-27T16:27:08.465Z,101136.58
2018-12-27T16:32:12.391Z,101142.43
2018-12-27T16:37:16.134Z,101132.53
2018-12-27T16:42:22.007Z,101142.92
2018-12-27T16:47:25.600Z,101134.58
2018-12-27T16:52:29.351Z,101135.51
2018-12-27T16:57:33.102Z,101136.14
2018-12-27T17:02:36.865Z,101136.34
2018-12-27T17:07:40.628Z,101136.88
2018-12-27T17:12:44.445Z,101135.46
2018-12-27T17:17:48.187Z,101134.01
2018-12-27T17:22:52.017Z,101135.60
2018-12-27T17:27:55.849Z,101143.70
2018-12-27T17:32:59.631Z,101134.49
2018-12-27T17:38:03.412Z,101134.63
2018-12-27T17:43:07.156Z,101133.99
2018-12-27T17:48:10.889Z,101133.99
2018-12-27T17:53:14.631Z,101127.44
2018-12-27T17:58:18.614Z,101126.12
2018-12-27T18:03:22.381Z,101126.03
2018-12-27T18:08:26.084Z,101122.84
2018-12-27T18:13:30.073Z,101121.63
2018-12-27T18:18:33.867Z,101118.75
2018-12-27T18:23:37.653Z,101116.85
2018-12-27T18:28:41.462Z,101127.84
2018-12-27T18:33:45.295Z,101127.47
2018-12-27T18:38:51.898Z,101129.67
2018-12-27T18:43:55.636Z,101134.26
2018-12-27T18:48:59.525Z,101134.89
2018-12-27T18:54:04.610Z,101124.97
2018-12-27T18:59:09.862Z,101120.38
2018-12-27T19:04:13.713Z,101117.39
2018-12-27T19:09:17.679Z,101117.86
2018-12-27T19:14:21.389Z,101117.84
2018-12-27T19:19:25.175Z,101114.63
2018-12-27T19:24:28.996Z,101114.22
2018-12-27T19:29:32.709Z,101116.42
2018-12-27T19:34:36.641Z,101114.95
2018-12-27T19:39:40.445Z,101108.75
2018-12-27T19:44:44.228Z,101107.65
2018-12-27T19:49:48.057Z,101104.42
2018-12-27T19:54:51.837Z,101109.48
2018-12-27T19:59:55.674Z,101113.55
2018-12-27T20:04:59.646Z,101114.32
2018-12-27T20:10:03.418Z,101110.91
2018-12-27T20:15:07.396Z,101113.69
2018-12-27T20:20:11.205Z,101108.30
2018-12-27T20:25:14.991Z,101101.32
2018-12-27T20:30:18.748Z,101105.14
2018-12-27T20:35:22.476Z,101101.94
2018-12-27T20:40:26.245Z,101101.33
2018-12-27T20:45:29.978Z,101095.72
2018-12-27T20:50:33.718Z,101096.84
2018-12-27T20:55:37.641Z,101092.23
2018-12-27T21:00:43.639Z,101089.66
2018-12-27T21:05:47.654Z,101098.34
2018-12-27T21:10:51.535Z,101099.17
2018-12-27T21:15:55.366Z,101095.21
2018-12-27T21:20:59.283Z,101110.60
2018-12-27T21:26:03.223Z,101113.34
2018-12-27T21:31:07.121Z,101102.80
2018-12-27T21:36:11.064Z,101097.11
2018-12-27T21:41:14.958Z,101099.94
2018-12-27T21:46:18.832Z,101102.51
2018-12-27T21:51:22.663Z,101097.19
2018-12-27T21:56:26.462Z,101091.03
2018-12-27T22:01:30.242Z,101093.52
2018-12-27T22:06:34.176Z,101099.15
2018-12-27T22:11:38.315Z,101109.84
2018-12-27T22:16:42.208Z,101105.67
2018-12-27T22:21:46.216Z,101101.08
2018-12-27T22:26:49.988Z,101094.69
2018-12-27T22:31:54.012Z,101091.74
2018-12-27T22:36:59.413Z,101086.36
2018-12-27T22:42:05.256Z,101089.09
2018-12-27T22:47:09.188Z,101088.31
2018-12-27T22:52:14.434Z,101081.51
2018-12-27T22:57:19.341Z,101080.66
2018-12-27T23:02:23.362Z,101075.84
2018-12-27T23:07:27.136Z,101080.06
2018-12-27T23:12:31.043Z,101079.13
2018-12-27T23:17:34.778Z,101076.27
2018-12-27T23:22:38.535Z,101074.64
2018-12-27T23:27:44.600Z,101075.66
2018-12-27T23:32:48.477Z,101065.02
2018-12-27T23:37:52.415Z,101063.93
2018-12-27T23:42:56.375Z,101059.34
2018-12-27T23:48:00.414Z,101061.58
2018-12-27T23:53:04.358Z,101061.86
2018-12-27T23:58:08.274Z,101068.78
